createdAt,value
2023-01-04T00:01:22.554Z,99365.47
2023-01-04T00:02:54.294Z,99359.75
2023-01-04T00:04:26.173Z,99374.47
2023-01-04T00:05:59.304Z,99368.13
2023-01-04T00:07:31.031Z,99363.25
2023-01-04T00:09:02.918Z,99362.22
2023-01-04T00:10:35.330Z,99358.16
2023-01-04T00:12:07.069Z,99365.81
2023-01-04T00:13:39.350Z,99364.16
2023-01-04T00:15:11.322Z,99362.97
2023-01-04T00:16:43.091Z,99357.97
2023-01-04T00:18:14.727Z,99354.06
2023-01-04T00:19:46.420Z,99349.66
2023-01-04T00:21:21.682Z,99353.09
2023-01-04T00:22:53.395Z,99353.78
2023-01-04T00:24:25.041Z,99348.81
2023-01-04T00:25:56.659Z,99345.94
2023-01-04T00:27:28.243Z,99343.56
2023-01-04T00:29:02.785Z,99342.81
2023-01-04T00:30:34.561Z,99333.59
2023-01-04T00:32:06.256Z,99340.88
2023-01-04T00:33:38.204Z,99328.19
2023-01-04T00:35:10.495Z,99328.47
2023-01-04T00:36:42.368Z,99325.00
2023-01-04T00:38:13.945Z,99318.16
2023-01-04T00:39:45.551Z,99315.78
2023-01-04T00:41:56.418Z,99312.00
2023-01-04T00:43:08.713Z,99312.44
2023-01-04T00:44:40.324Z,99310.91
2023-01-04T00:46:12.048Z,99307.06
2023-01-04T00:47:43.682Z,99309.09
2023-01-04T00:49:15.445Z,99311.41
2023-01-04T00:50:48.204Z,99307.75
2023-01-04T00:52:19.879Z,99308.47
2023-01-04T00:53:51.978Z,99308.03
2023-01-04T00:55:23.595Z,99299.78
2023-01-04T00:56:55.396Z,99303.06
2023-01-04T00:58:27.044Z,99304.88
2023-01-04T00:59:58.636Z,99297.81
2023-01-04T01:01:31.967Z,99292.44
2023-01-04T01:03:04.678Z,99296.53
2023-01-04T01:04:36.747Z,99296.47
2023-01-04T01:06:08.602Z,99289.78
2023-01-04T01:07:40.264Z,99289.31
2023-01-04T01:09:12.632Z,99296.78
2023-01-04T01:10:44.312Z,99289.78
2023-01-04T01:12:15.877Z,99284.63
2023-01-04T01:13:48.221Z,99282.22
2023-01-04T01:15:19.813Z,99283.66
2023-01-04T01:16:59.710Z,99275.91
2023-01-04T01:18:31.432Z,99273.75
2023-01-04T01:20:05.154Z,99284.56
2023-01-04T01:21:37.860Z,99278.31
2023-01-04T01:23:10.966Z,99274.19
2023-01-04T01:24:42.487Z,99273.53
2023-01-04T01:26:19.291Z,99278.09
2023-01-04T01:27:50.943Z,99275.97
2023-01-04T01:29:22.783Z,99286.38
2023-01-04T01:30:54.662Z,99286.81
2023-01-04T01:32:26.393Z,99293.63
2023-01-04T01:33:59.816Z,99292.66
2023-01-04T01:35:33.751Z,99295.03
2023-01-04T01:37:06.092Z,99288.88
2023-01-04T01:38:38.409Z,99287.69
2023-01-04T01:40:10.730Z,99280.38
2023-01-04T01:41:42.457Z,99283.72
2023-01-04T01:43:22.490Z,99293.84
2023-01-04T01:45:01.860Z,99291.03
2023-01-04T01:46:54.719Z,99285.47
2023-01-04T01:48:29.704Z,99282.59
2023-01-04T01:50:02.981Z,99280.84
2023-01-04T01:51:35.470Z,99280.97
2023-01-04T01:53:09.716Z,99281.69
2023-01-04T01:54:47.282Z,99286.97
2023-01-04T01:56:19.680Z,99287.28
2023-01-04T01:57:54.556Z,99291.16
2023-01-04T01:59:27.614Z,99289.78
2023-01-04T02:00:59.587Z,99284.25
2023-01-04T02:02:31.332Z,99285.00
2023-01-04T02:04:05.155Z,99280.31
2023-01-04T02:05:37.388Z,99283.03
2023-01-04T02:07:11.951Z,99286.25
2023-01-04T02:08:43.891Z,99286.50
2023-01-04T02:10:15.934Z,99282.84
2023-01-04T02:11:47.564Z,99286.25
2023-01-04T02:13:23.632Z,99285.78
2023-01-04T02:14:55.285Z,99284.03
2023-01-04T02:16:44.918Z,99278.13
2023-01-04T02:18:24.137Z,99282.13
2023-01-04T02:20:14.225Z,99282.25
2023-01-04T02:22:04.063Z,99283.72
2023-01-04T02:23:50.593Z,99276.34
2023-01-04T02:25:34.058Z,99274.69
2023-01-04T02:27:34.290Z,99279.56
2023-01-04T02:29:30.545Z,99271.19
2023-01-04T02:31:26.922Z,99274.25
2023-01-04T02:33:23.259Z,99278.22
2023-01-04T02:35:22.742Z,99279.38
2023-01-04T02:37:19.015Z,99278.00
2023-01-04T02:38:53.432Z,99270.06
2023-01-04T02:41:15.429Z,99270.53
2023-01-04T02:43:22.528Z,99259.50
2023-01-04T02:45:04.510Z,99260.59
2023-01-04T02:46:42.750Z,99255.41
2023-01-04T02:48:32.883Z,99254.81
2023-01-04T02:50:32.283Z,99259.63
2023-01-04T02:52:03.998Z,99254.31
2023-01-04T02:53:38.816Z,99256.94
2023-01-04T02:55:10.432Z,99262.25
2023-01-04T02:56:57.284Z,99256.63
2023-01-04T02:58:52.008Z,99250.56
2023-01-04T03:00:26.609Z,99250.75
2023-01-04T03:02:43.293Z,99245.59
2023-01-04T03:04:39.248Z,99242.88
2023-01-04T03:06:25.704Z,99247.22
2023-01-04T03:08:08.543Z,99242.13
2023-01-04T03:09:45.443Z,99243.19
2023-01-04T03:11:36.304Z,99242.63
2023-01-04T03:13:17.650Z,99243.47
2023-01-04T03:15:00.980Z,99233.78
2023-01-04T03:16:35.905Z,99231.31
2023-01-04T03:18:18.121Z,99235.09
2023-01-04T03:19:55.165Z,99236.56
2023-01-04T03:21:28.393Z,99234.00
2023-01-04T03:23:27.455Z,99222.00
2023-01-04T03:25:19.742Z,99222.00
2023-01-04T03:27:23.401Z,99212.91
2023-01-04T03:29:18.649Z,99219.84
2023-01-04T03:31:19.120Z,99218.56
2023-01-04T03:33:22.439Z,99203.34
2023-01-04T03:35:13.590Z,99220.41
2023-01-04T03:37:21.802Z,99217.78
2023-01-04T03:39:39.946Z,99215.97
2023-01-04T03:41:35.217Z,99209.53
2023-01-04T03:43:28.501Z,99199.16
2023-01-04T03:45:37.653Z,99205.50
2023-01-04T03:47:36.275Z,99199.59
2023-01-04T03:49:13.820Z,99204.03
2023-01-04T03:50:52.018Z,99210.03
2023-01-04T03:52:27.079Z,99209.78
2023-01-04T03:54:17.634Z,99211.53
2023-01-04T03:55:51.242Z,99205.34
2023-01-04T03:57:23.645Z,99210.75
2023-01-04T03:58:55.279Z,99205.41
2023-01-04T04:00:27.864Z,99201.28
2023-01-04T04:01:59.503Z,99194.03
2023-01-04T04:03:50.530Z,99204.50
2023-01-04T04:05:43.271Z,99192.34
2023-01-04T04:07:33.198Z,99197.78
2023-01-04T04:09:04.883Z,99199.34
2023-01-04T04:10:36.511Z,99193.72
2023-01-04T04:12:08.166Z,99203.72
2023-01-04T04:13:39.719Z,99201.25
2023-01-04T04:15:11.404Z,99194.31
2023-01-04T04:16:43.060Z,99189.69
2023-01-04T04:18:14.700Z,99195.28
2023-01-04T04:19:46.308Z,99193.69
2023-01-04T04:21:17.899Z,99194.25
2023-01-04T04:22:49.517Z,99194.00
2023-01-04T04:24:26.988Z,99187.28
2023-01-04T04:25:58.671Z,99182.66
2023-01-04T04:27:30.290Z,99182.06
2023-01-04T04:29:01.885Z,99176.28
2023-01-04T04:30:33.504Z,99180.41
2023-01-04T04:32:05.347Z,99178.66
2023-01-04T04:33:37.038Z,99178.03
2023-01-04T04:35:09.179Z,99173.72
2023-01-04T04:36:40.844Z,99177.97
2023-01-04T04:38:12.403Z,99176.56
2023-01-04T04:39:43.973Z,99174.94
2023-01-04T04:41:34.392Z,99178.72
2023-01-04T04:43:08.010Z,99180.88
2023-01-04T04:44:39.694Z,99175.44
2023-01-04T04:46:11.387Z,99176.75
2023-01-04T04:47:43.009Z,99183.16
2023-01-04T04:49:15.007Z,99186.47
2023-01-04T04:50:46.535Z,99183.69
2023-01-04T04:52:18.171Z,99179.28
2023-01-04T04:53:49.755Z,99173.09
2023-01-04T04:55:21.308Z,99176.34
2023-01-04T04:56:52.934Z,99179.56
2023-01-04T04:58:24.661Z,99168.41
2023-01-04T04:59:56.239Z,99166.56
2023-01-04T05:01:27.888Z,99162.88
2023-01-04T05:03:00.487Z,99160.19
2023-01-04T05:04:32.175Z,99150.13
2023-01-04T05:06:04.336Z,99154.81
2023-01-04T05:07:36.010Z,99149.03
2023-01-04T05:09:07.780Z,99154.28
2023-01-04T05:10:39.410Z,99148.59
2023-01-04T05:12:31.190Z,99151.19
2023-01-04T05:14:02.800Z,99145.09
2023-01-04T05:15:39.692Z,99148.38
2023-01-04T05:17:11.345Z,99154.38
2023-01-04T05:18:42.998Z,99153.53
2023-01-04T05:20:14.601Z,99150.88
2023-01-04T05:21:46.154Z,99152.38
2023-01-04T05:23:19.785Z,99159.47
2023-01-04T05:24:51.387Z,99160.97
2023-01-04T05:26:23.046Z,99159.75
2023-01-04T05:27:55.196Z,99156.28
2023-01-04T05:29:45.203Z,99147.31
2023-01-04T05:31:16.823Z,99149.66
2023-01-04T05:32:48.457Z,99142.69
2023-01-04T05:34:22.276Z,99140.94
2023-01-04T05:35:56.305Z,99135.47
2023-01-04T05:37:27.931Z,99132.22
2023-01-04T05:38:59.527Z,99137.69
2023-01-04T05:40:31.464Z,99140.03
2023-01-04T05:42:21.975Z,99140.69
2023-01-04T05:43:53.535Z,99140.31
2023-01-04T05:45:27.230Z,99137.00
2023-01-04T05:46:58.821Z,99131.13
2023-01-04T05:48:30.451Z,99129.25
2023-01-04T05:50:02.697Z,99136.59
2023-01-04T05:51:34.530Z,99140.00
2023-01-04T05:53:06.668Z,99138.44
2023-01-04T05:54:38.367Z,99141.53
2023-01-04T05:56:09.899Z,99143.28
2023-01-04T05:57:42.272Z,99138.88
2023-01-04T05:59:15.074Z,99132.56
2023-01-04T06:00:46.738Z,99125.56
2023-01-04T06:02:29.505Z,99125.91
2023-01-04T06:04:01.221Z,99120.88
2023-01-04T06:05:32.912Z,99113.97
2023-01-04T06:07:04.510Z,99120.81
2023-01-04T06:08:36.133Z,99123.91
2023-01-04T06:10:10.318Z,99120.31
2023-01-04T06:11:41.992Z,99120.69
2023-01-04T06:13:13.622Z,99122.34
2023-01-04T06:14:45.303Z,99122.75
2023-01-04T06:16:16.889Z,99124.56
2023-01-04T06:17:48.541Z,99122.75
2023-01-04T06:19:20.178Z,99120.34
2023-01-04T06:20:52.307Z,99112.81
2023-01-04T06:22:27.047Z,99120.97
2023-01-04T06:23:58.789Z,99116.53
2023-01-04T06:25:30.377Z,99114.66
2023-01-04T06:27:03.376Z,99118.22
2023-01-04T06:28:40.527Z,99120.97
2023-01-04T06:30:12.693Z,99118.94
2023-01-04T06:31:44.695Z,99123.63
2023-01-04T06:33:16.249Z,99110.72
2023-01-04T06:34:48.012Z,99109.81
2023-01-04T06:36:20.389Z,99105.94
2023-01-04T06:37:52.152Z,99112.09
2023-01-04T06:39:23.893Z,99111.25
2023-01-04T06:40:55.552Z,99114.88
2023-01-04T06:42:45.232Z,99121.31
2023-01-04T06:44:17.017Z,99114.97
2023-01-04T06:45:48.736Z,99112.16
2023-01-04T06:47:20.279Z,99116.91
2023-01-04T06:48:53.754Z,99112.91
2023-01-04T06:50:25.326Z,99111.34
2023-01-04T06:51:56.934Z,99115.06
2023-01-04T06:53:28.625Z,99116.09
2023-01-04T06:55:00.265Z,99111.13
2023-01-04T06:56:32.337Z,99107.75
2023-01-04T06:58:03.948Z,99106.91
2023-01-04T06:59:35.543Z,99108.47
2023-01-04T07:01:07.901Z,99107.16
2023-01-04T07:02:39.917Z,99105.50
2023-01-04T07:04:31.302Z,99105.50
2023-01-04T07:06:07.698Z,99107.00
2023-01-04T07:07:39.328Z,99109.47
2023-01-04T07:09:10.928Z,99104.91
2023-01-04T07:10:42.856Z,99106.34
2023-01-04T07:12:14.546Z,99103.59
2023-01-04T07:13:46.245Z,99117.25
2023-01-04T07:15:37.995Z,99111.16
2023-01-04T07:17:09.599Z,99105.72
2023-01-04T07:18:41.256Z,99109.91
2023-01-04T07:20:12.882Z,99110.75
2023-01-04T07:21:44.540Z,99108.84
2023-01-04T07:23:16.190Z,99107.81
2023-01-04T07:24:47.730Z,99111.16
2023-01-04T07:26:19.271Z,99114.38
2023-01-04T07:27:54.385Z,99111.72
2023-01-04T07:29:26.296Z,99110.66
2023-01-04T07:30:57.978Z,99108.72
2023-01-04T07:32:29.660Z,99104.94
2023-01-04T07:34:01.278Z,99096.88
2023-01-04T07:35:32.925Z,99106.84
2023-01-04T07:37:04.724Z,99107.75
2023-01-04T07:38:36.676Z,99102.38
2023-01-04T07:40:08.855Z,99101.38
2023-01-04T07:41:41.500Z,99096.00
2023-01-04T07:43:13.825Z,99104.28
2023-01-04T07:44:45.839Z,99097.91
2023-01-04T07:46:17.600Z,99098.66
2023-01-04T07:47:49.316Z,99101.03
2023-01-04T07:49:21.149Z,99099.75
2023-01-04T07:50:52.735Z,99098.56
2023-01-04T07:52:24.374Z,99092.31
2023-01-04T07:53:56.050Z,99090.44
2023-01-04T07:55:27.703Z,99085.91
2023-01-04T07:56:59.247Z,99086.59
2023-01-04T07:58:34.319Z,99090.56
2023-01-04T08:00:06.577Z,99091.19
2023-01-04T08:01:43.884Z,99092.69
2023-01-04T08:03:15.589Z,99096.56
2023-01-04T08:04:47.264Z,99095.06
2023-01-04T08:06:20.522Z,99087.28
2023-01-04T08:07:52.646Z,99099.78
2023-01-04T08:09:24.208Z,99091.16
2023-01-04T08:10:55.766Z,99086.56
2023-01-04T08:12:27.822Z,99086.44
2023-01-04T08:13:59.487Z,99086.78
2023-01-04T08:15:31.170Z,99089.56
2023-01-04T08:17:02.868Z,99079.09
2023-01-04T08:18:34.788Z,99077.03
2023-01-04T08:20:07.475Z,99074.69
2023-01-04T08:21:39.109Z,99073.88
2023-01-04T08:23:10.704Z,99070.16
2023-01-04T08:24:42.355Z,99065.78
2023-01-04T08:26:15.268Z,99055.16
2023-01-04T08:27:46.900Z,99058.56
2023-01-04T08:29:18.546Z,99061.78
2023-01-04T08:30:50.188Z,99060.84
2023-01-04T08:32:21.926Z,99052.03
2023-01-04T08:33:54.118Z,99051.84
2023-01-04T08:35:25.741Z,99047.81
2023-01-04T08:36:57.361Z,99044.81
2023-01-04T08:38:58.632Z,99046.69
2023-01-04T08:40:20.550Z,99043.59
2023-01-04T08:42:10.831Z,99037.28
2023-01-04T08:43:44.782Z,99039.06
2023-01-04T08:45:16.393Z,99050.28
2023-01-04T08:46:49.033Z,99046.75
2023-01-04T08:48:24.543Z,99044.66
2023-01-04T08:49:56.997Z,99049.53
2023-01-04T08:51:28.629Z,99048.59
2023-01-04T08:53:00.270Z,99045.72
2023-01-04T08:54:32.881Z,99040.50
2023-01-04T08:56:04.950Z,99040.63
2023-01-04T08:57:36.620Z,99032.59
2023-01-04T08:59:10.976Z,99027.41
2023-01-04T09:00:42.609Z,99020.59
2023-01-04T09:02:26.592Z,99021.94
2023-01-04T09:03:58.696Z,99025.44
2023-01-04T09:05:32.279Z,99022.03
2023-01-04T09:07:03.856Z,99025.97
2023-01-04T09:08:36.979Z,99019.63
2023-01-04T09:10:09.037Z,99010.03
2023-01-04T09:11:40.673Z,99010.00
2023-01-04T09:13:12.382Z,99001.31
2023-01-04T09:14:44.107Z,99005.97
2023-01-04T09:16:18.916Z,99008.56
2023-01-04T09:18:29.305Z,99007.03
2023-01-04T09:19:42.467Z,99006.03
2023-01-04T09:21:17.281Z,99010.09
2023-01-04T09:22:48.870Z,99009.47
2023-01-04T09:24:20.508Z,99011.47
2023-01-04T09:25:52.467Z,99014.44
2023-01-04T09:27:24.079Z,99013.25
2023-01-04T09:28:56.509Z,99009.25
2023-01-04T09:30:28.217Z,99000.06
2023-01-04T09:31:59.881Z,99001.63
2023-01-04T09:33:55.732Z,99000.06
2023-01-04T09:35:23.182Z,98995.88
2023-01-04T09:36:54.866Z,98994.38
2023-01-04T09:38:26.474Z,98998.53
2023-01-04T09:39:58.017Z,98996.16
2023-01-04T09:42:00.261Z,99003.75
2023-01-04T09:43:40.574Z,98998.28
2023-01-04T09:45:24.863Z,98997.00
2023-01-04T09:47:08.435Z,99009.69
2023-01-04T09:48:42.935Z,98999.59
2023-01-04T09:50:34.803Z,99008.72
2023-01-04T09:52:09.364Z,99011.34
2023-01-04T09:53:50.593Z,99014.53
2023-01-04T09:55:38.024Z,99013.03
2023-01-04T09:57:42.985Z,99003.75
2023-01-04T09:59:17.592Z,99013.84
2023-01-04T10:01:15.292Z,99002.22
2023-01-04T10:02:53.030Z,98998.91
2023-01-04T10:04:44.380Z,99007.19
2023-01-04T10:06:16.086Z,99005.91
2023-01-04T10:07:47.814Z,99001.06
2023-01-04T10:09:20.308Z,99006.03
2023-01-04T10:11:29.385Z,99015.25
2023-01-04T10:13:24.149Z,99011.09
2023-01-04T10:15:12.638Z,99004.59
2023-01-04T10:17:14.743Z,99002.94
2023-01-04T10:20:08.007Z,98992.75
2023-01-04T10:23:02.764Z,98979.44
2023-01-04T10:24:56.259Z,98975.88
2023-01-04T10:26:36.667Z,98967.66
2023-01-04T10:28:55.293Z,98967.00
2023-01-04T10:30:56.211Z,98954.03
2023-01-04T10:32:43.426Z,98962.13
2023-01-04T10:34:29.634Z,98955.34
2023-01-04T10:36:01.513Z,98950.34
2023-01-04T10:37:37.587Z,98952.41
2023-01-04T10:39:19.808Z,98951.56
2023-01-04T10:40:52.213Z,98963.19
2023-01-04T10:42:34.333Z,98960.84
2023-01-04T10:44:24.786Z,98952.97
2023-01-04T10:46:12.245Z,98954.34
2023-01-04T10:48:02.609Z,98946.91
2023-01-04T10:49:40.174Z,98941.47
2023-01-04T10:51:15.531Z,98931.25
2023-01-04T10:52:56.139Z,98926.88
2023-01-04T10:54:35.432Z,98929.94
2023-01-04T10:56:27.493Z,98935.13
2023-01-04T10:58:06.812Z,98916.97
2023-01-04T10:59:47.364Z,98910.63
2023-01-04T11:01:42.313Z,98922.84
2023-01-04T11:03:20.215Z,98927.50
2023-01-04T11:05:32.296Z,98924.50
2023-01-04T11:07:20.488Z,98911.91
2023-01-04T11:09:16.283Z,98907.00
2023-01-04T11:11:03.775Z,98911.91
2023-01-04T11:12:35.403Z,98908.31
2023-01-04T11:14:07.148Z,98912.41
2023-01-04T11:15:38.865Z,98912.81
2023-01-04T11:17:11.914Z,98914.91
2023-01-04T11:18:45.544Z,98911.25
2023-01-04T11:20:17.803Z,98913.28
2023-01-04T11:22:02.073Z,98918.91
2023-01-04T11:23:33.809Z,98903.38
2023-01-04T11:27:13.329Z,98903.75
2023-01-04T11:29:00.508Z,98903.47
2023-01-04T11:31:10.669Z,98906.47
2023-01-04T11:33:00.684Z,98898.34
2023-01-04T11:34:53.609Z,98904.09
2023-01-04T11:36:40.205Z,98892.09
2023-01-04T11:38:13.767Z,98884.31
2023-01-04T11:39:45.405Z,98886.59
2023-01-04T11:41:19.425Z,98882.69
2023-01-04T11:43:15.745Z,98877.09
2023-01-04T11:45:16.308Z,98870.19
2023-01-04T11:47:05.165Z,98865.41
2023-01-04T11:48:43.705Z,98869.91
2023-01-04T11:50:42.971Z,98862.75
2023-01-04T11:52:34.777Z,98867.81
2023-01-04T11:54:19.368Z,98867.06
2023-01-04T11:55:51.958Z,98864.88
2023-01-04T11:57:23.564Z,98864.13
2023-01-04T11:59:14.669Z,98862.09
2023-01-04T12:00:51.555Z,98860.59
2023-01-04T12:02:59.513Z,98861.53
2023-01-04T12:04:26.111Z,98857.16
2023-01-04T12:05:58.787Z,98859.19
2023-01-04T12:07:35.468Z,98865.25
2023-01-04T12:09:15.622Z,98857.53
2023-01-04T12:10:50.419Z,98863.28
2023-01-04T12:12:27.331Z,98857.72
2023-01-04T12:13:59.985Z,98865.50
2023-01-04T12:15:56.462Z,98850.97
2023-01-04T12:17:43.533Z,98847.28
2023-01-04T12:19:17.674Z,98850.41
2023-01-04T12:20:49.345Z,98858.56
2023-01-04T12:22:35.905Z,98851.94
2023-01-04T12:24:07.739Z,98859.66
2023-01-04T12:25:51.342Z,98857.22
2023-01-04T12:27:23.603Z,98859.16
2023-01-04T12:29:22.977Z,98848.84
2023-01-04T12:30:54.674Z,98841.69
2023-01-04T12:32:26.188Z,98847.19
2023-01-04T12:34:16.764Z,98846.91
2023-01-04T12:36:15.798Z,98849.81
2023-01-04T12:37:49.524Z,98846.63
2023-01-04T12:39:22.615Z,98844.28
2023-01-04T12:40:55.316Z,98853.38
2023-01-04T12:42:27.251Z,98845.41
2023-01-04T12:43:58.904Z,98843.59
2023-01-04T12:45:30.545Z,98843.84
2023-01-04T12:47:41.929Z,98842.34
2023-01-04T12:49:28.886Z,98839.16
2023-01-04T12:51:33.315Z,98837.53
2023-01-04T12:53:28.834Z,98830.25
2023-01-04T12:55:18.195Z,98827.34
2023-01-04T12:57:37.201Z,98831.22
2023-01-04T12:59:29.463Z,98828.59
2023-01-04T13:01:01.152Z,98823.91
2023-01-04T13:02:34.107Z,98822.66
2023-01-04T13:04:29.845Z,98825.16
2023-01-04T13:06:04.662Z,98812.34
2023-01-04T13:08:03.812Z,98814.81
2023-01-04T13:09:48.270Z,98809.28
2023-01-04T13:11:52.971Z,98807.25
2023-01-04T13:13:34.052Z,98814.41
2023-01-04T13:15:19.705Z,98808.34
2023-01-04T13:17:00.684Z,98810.97
2023-01-04T13:18:40.994Z,98804.91
2023-01-04T13:20:25.799Z,98811.38
2023-01-04T13:21:59.439Z,98802.31
2023-01-04T13:23:31.380Z,98797.59
2023-01-04T13:25:06.097Z,98793.31
2023-01-04T13:26:43.131Z,98801.47
2023-01-04T13:28:18.645Z,98793.47
2023-01-04T13:29:51.936Z,98796.94
2023-01-04T13:31:23.678Z,98795.81
2023-01-04T13:33:24.798Z,98792.91
2023-01-04T13:34:55.589Z,98802.66
2023-01-04T13:36:27.295Z,98802.78
2023-01-04T13:38:00.636Z,98805.56
2023-01-04T13:39:32.770Z,98790.28
2023-01-04T13:41:18.351Z,98801.00
2023-01-04T13:42:58.508Z,98797.00
2023-01-04T13:45:21.485Z,98796.44
2023-01-04T13:46:56.155Z,98782.22
2023-01-04T13:48:32.538Z,98785.22
2023-01-04T13:50:07.012Z,98780.72
2023-01-04T13:51:38.698Z,98789.25
2023-01-04T13:53:24.074Z,98787.22
2023-01-04T13:55:21.178Z,98787.72
2023-01-04T13:58:46.239Z,98781.56
2023-01-04T14:00:18.332Z,98784.13
2023-01-04T14:01:50.791Z,98782.00
2023-01-04T14:03:45.126Z,98779.25
2023-01-04T14:05:18.641Z,98778.56
2023-01-04T14:06:51.815Z,98769.84
2023-01-04T14:09:16.169Z,98756.09
2023-01-04T14:10:48.140Z,98760.44
2023-01-04T14:12:24.903Z,98759.13
2023-01-04T14:13:56.608Z,98758.53
2023-01-04T14:15:29.415Z,98758.94
2023-01-04T14:17:10.210Z,98757.00
2023-01-04T14:18:41.869Z,98767.50
2023-01-04T14:20:14.214Z,98760.34
2023-01-04T14:21:45.828Z,98761.66
2023-01-04T14:23:35.467Z,98764.78
2023-01-04T14:25:41.941Z,98765.38
2023-01-04T14:27:34.099Z,98756.19
2023-01-04T14:29:32.460Z,98762.13
2023-01-04T14:31:05.126Z,98755.09
2023-01-04T14:32:36.761Z,98752.47
2023-01-04T14:34:14.475Z,98756.75
2023-01-04T14:35:48.982Z,98745.88
2023-01-04T14:37:21.776Z,98753.94
2023-01-04T14:39:06.446Z,98743.25
2023-01-04T14:40:39.037Z,98746.84
2023-01-04T14:42:27.826Z,98741.97
2023-01-04T14:43:59.404Z,98737.19
2023-01-04T14:45:31.273Z,98740.81
2023-01-04T14:47:07.352Z,98732.91
2023-01-04T14:48:39.249Z,98742.56
2023-01-04T14:50:13.157Z,98743.69
2023-01-04T14:52:03.076Z,98740.09
2023-01-04T14:53:35.100Z,98746.06
2023-01-04T14:55:07.259Z,98745.25
2023-01-04T14:56:39.882Z,98742.84
2023-01-04T14:58:11.548Z,98745.72
2023-01-04T14:59:44.923Z,98744.66
2023-01-04T15:01:16.650Z,98737.47
2023-01-04T15:02:51.022Z,98740.38
2023-01-04T15:04:23.522Z,98732.09
2023-01-04T15:05:55.252Z,98733.00
2023-01-04T15:07:35.805Z,98738.66
2023-01-04T15:09:09.979Z,98734.91
2023-01-04T15:10:41.539Z,98730.25
2023-01-04T15:12:13.143Z,98735.72
2023-01-04T15:13:45.124Z,98730.38
2023-01-04T15:15:16.837Z,98726.03
2023-01-04T15:16:48.985Z,98719.91
2023-01-04T15:18:20.576Z,98718.03
2023-01-04T15:19:52.163Z,98721.44
2023-01-04T15:21:23.834Z,98720.06
2023-01-04T15:22:55.513Z,98715.84
2023-01-04T15:24:27.170Z,98721.19
2023-01-04T15:26:01.724Z,98714.00
2023-01-04T15:27:39.987Z,98717.59
2023-01-04T15:29:13.813Z,98716.53
2023-01-04T15:30:45.658Z,98730.44
2023-01-04T15:32:17.539Z,98719.53
2023-01-04T15:33:49.430Z,98733.91
2023-01-04T15:35:21.013Z,98718.66
2023-01-04T15:36:52.788Z,98727.47
2023-01-04T15:38:24.431Z,98728.41
2023-01-04T15:40:01.889Z,98732.09
2023-01-04T15:41:52.695Z,98726.75
2023-01-04T15:43:26.457Z,98741.66
2023-01-04T15:44:59.535Z,98731.41
2023-01-04T15:46:31.530Z,98739.03
2023-01-04T15:48:08.163Z,98733.97
2023-01-04T15:49:39.968Z,98719.97
2023-01-04T15:51:11.633Z,98727.13
2023-01-04T15:52:43.263Z,98730.19
2023-01-04T15:54:14.974Z,98731.88
2023-01-04T15:55:46.628Z,98731.88
2023-01-04T15:57:18.369Z,98734.78
2023-01-04T15:58:55.249Z,98737.72
2023-01-04T16:00:27.477Z,98734.66
2023-01-04T16:01:59.222Z,98730.00
2023-01-04T16:03:30.903Z,98728.47
2023-01-04T16:05:02.576Z,98723.66
2023-01-04T16:06:34.332Z,98730.78
2023-01-04T16:08:05.956Z,98720.34
2023-01-04T16:09:37.985Z,98720.88
2023-01-04T16:11:21.275Z,98719.31
2023-01-04T16:12:56.683Z,98706.31
2023-01-04T16:14:29.216Z,98703.44
2023-01-04T16:16:01.468Z,98701.25
2023-01-04T16:17:33.337Z,98701.44
2023-01-04T16:19:05.943Z,98699.88
2023-01-04T16:20:41.239Z,98708.19
2023-01-04T16:22:12.901Z,98708.59
2023-01-04T16:23:49.966Z,98705.72
2023-01-04T16:25:21.667Z,98699.78
2023-01-04T16:26:53.387Z,98697.88
2023-01-04T16:28:24.940Z,98697.50
2023-01-04T16:29:56.604Z,98693.53
2023-01-04T16:31:33.277Z,98685.44
2023-01-04T16:33:05.242Z,98687.66
2023-01-04T16:34:36.953Z,98674.41
2023-01-04T16:36:11.371Z,98692.97
2023-01-04T16:37:43.302Z,98689.53
2023-01-04T16:39:15.779Z,98672.97
2023-01-04T16:40:56.957Z,98680.72
2023-01-04T16:42:28.634Z,98695.41
2023-01-04T16:44:01.224Z,98691.53
2023-01-04T16:45:33.258Z,98688.53
2023-01-04T16:47:05.038Z,98681.41
2023-01-04T16:48:36.823Z,98687.16
2023-01-04T16:50:10.207Z,98691.22
2023-01-04T16:51:43.930Z,98692.00
2023-01-04T16:53:15.533Z,98676.72
2023-01-04T16:54:47.131Z,98683.91
2023-01-04T16:56:20.276Z,98680.72
2023-01-04T16:57:51.874Z,98675.72
2023-01-04T16:59:23.560Z,98670.50
2023-01-04T17:00:55.307Z,98667.88
2023-01-04T17:02:27.047Z,98659.31
2023-01-04T17:04:03.042Z,98668.94
2023-01-04T17:05:39.556Z,98668.13
2023-01-04T17:07:11.431Z,98677.72
2023-01-04T17:08:44.437Z,98679.63
2023-01-04T17:10:16.346Z,98673.97
2023-01-04T17:13:49.312Z,98676.94
2023-01-04T17:15:42.495Z,98666.50
2023-01-04T17:17:12.812Z,98660.81
2023-01-04T17:18:44.531Z,98667.66
2023-01-04T17:20:16.485Z,98663.56
2023-01-04T17:21:48.748Z,98662.34
2023-01-04T17:23:20.697Z,98659.38
2023-01-04T17:24:52.330Z,98660.81
2023-01-04T17:26:33.374Z,98656.44
2023-01-04T17:28:05.037Z,98658.66
2023-01-04T17:29:36.707Z,98659.16
2023-01-04T17:31:13.430Z,98649.63
2023-01-04T17:32:45.126Z,98636.84
2023-01-04T17:34:22.590Z,98650.00
2023-01-04T17:35:54.720Z,98647.50
2023-01-04T17:37:27.121Z,98640.97
2023-01-04T17:39:03.262Z,98641.47
2023-01-04T17:40:35.984Z,98651.47
2023-01-04T17:42:07.763Z,98649.41
2023-01-04T17:43:40.825Z,98654.97
2023-01-04T17:45:12.561Z,98652.25
2023-01-04T17:46:44.261Z,98646.81
2023-01-04T17:48:17.359Z,98653.09
2023-01-04T17:49:49.035Z,98653.84
2023-01-04T17:51:23.180Z,98659.81
2023-01-04T17:52:58.316Z,98655.44
2023-01-04T17:54:30.053Z,98663.34
2023-01-04T17:56:20.977Z,98663.66
2023-01-04T17:57:52.606Z,98664.25
2023-01-04T17:59:24.315Z,98660.13
2023-01-04T18:00:56.248Z,98655.84
2023-01-04T18:02:28.288Z,98659.44
2023-01-04T18:04:01.857Z,98654.66
2023-01-04T18:05:44.973Z,98654.56
2023-01-04T18:07:25.461Z,98654.31
2023-01-04T18:08:58.330Z,98652.13
2023-01-04T18:10:41.300Z,98650.81
2023-01-04T18:12:21.999Z,98655.50
2023-01-04T18:13:53.955Z,98651.06
2023-01-04T18:15:25.667Z,98644.50
2023-01-04T18:16:58.160Z,98641.59
2023-01-04T18:18:30.761Z,98646.31
2023-01-04T18:20:02.610Z,98646.06
2023-01-04T18:21:34.491Z,98647.59
2023-01-04T18:23:06.406Z,98649.78
2023-01-04T18:24:39.152Z,98649.78
2023-01-04T18:26:12.670Z,98648.84
2023-01-04T18:27:44.274Z,98648.25
2023-01-04T18:29:15.948Z,98645.94
2023-01-04T18:30:48.414Z,98636.19
2023-01-04T18:32:21.009Z,98643.69
2023-01-04T18:33:55.109Z,98646.91
2023-01-04T18:35:27.051Z,98648.94
2023-01-04T18:36:58.783Z,98639.56
2023-01-04T18:38:30.554Z,98647.03
2023-01-04T18:40:03.654Z,98641.91
2023-01-04T18:41:35.443Z,98653.22
2023-01-04T18:43:07.109Z,98653.78
2023-01-04T18:44:45.579Z,98648.19
2023-01-04T18:46:21.657Z,98636.78
2023-01-04T18:47:53.369Z,98636.81
2023-01-04T18:49:25.085Z,98646.75
2023-01-04T18:51:02.385Z,98647.44
2023-01-04T18:52:35.553Z,98643.44
2023-01-04T18:54:07.213Z,98634.34
2023-01-04T18:55:39.341Z,98642.91
2023-01-04T18:57:11.353Z,98632.88
2023-01-04T18:58:43.133Z,98644.41
2023-01-04T19:00:15.022Z,98635.09
2023-01-04T19:01:46.768Z,98632.38
2023-01-04T19:03:18.809Z,98645.34
2023-01-04T19:04:50.652Z,98650.75
2023-01-04T19:06:23.448Z,98636.72
2023-01-04T19:07:55.292Z,98637.38
2023-01-04T19:09:27.278Z,98640.53